Time;durP1;ratioP1;P1;durP2;ratioP2;P2;SDS_P1;SDS_P2;PMS_P1;PMS_P2;Temp;Humidity;BMP_temperature;BMP_pressure;BME280_temperature;BME280_humidity;BME280_pressure;Samples;Min_cycle;Max_cycle;Signal;HPM_P1;HPM_P2
2022/09/27 04:48:05;;;;;;;11.55;8.58;;;;;;;14.73;100.00;99023.08;1684098;83;21091;-48
2022/09/27 04:50:33;;;;;;;12.07;8.73;;;;;;;14.71;100.00;99018.30;1644650;86;21061;-45
2022/09/27 04:53:03;;;;;;;9.95;8.53;;;;;;;14.71;100.00;99021.39;1688224;83;21859;-39
2022/09/27 04:55:31;;;;;;;9.45;8.13;;;;;;;14.73;100.00;99027.48;1675724;83;21061;-45
2022/09/27 04:58:00;;;;;;;10.88;8.80;;;;;;;14.74;100.00;99025.25;1641294;86;21092;-44
2022/09/27 05:00:27;;;;;;;11.88;9.18;;;;;;;14.74;100.00;99022.16;1666669;83;21027;-39
2022/09/27 05:02:56;;;;;;;11.68;9.70;;;;;;;14.75;100.00;99021.69;1699312;83;21039;-39
2022/09/27 05:05:34;;;;;;;9.75;8.48;;;;;;;14.75;100.00;99019.06;1696936;83;21527;-45
2022/09/27 05:08:03;;;;;;;10.05;8.63;;;;;;;14.75;100.00;99015.11;1693603;83;21580;-45
2022/09/27 05:10:32;;;;;;;10.48;8.73;;;;;;;14.74;100.00;99020.84;1673366;83;21587;-46
2022/09/27 05:13:02;;;;;;;13.58;9.60;;;;;;;14.74;100.00;99019.52;1673044;83;21002;-46
2022/09/27 05:15:30;;;;;;;9.58;8.65;;;;;;;14.76;100.00;99021.62;1671170;83;21675;-39
2022/09/27 05:18:16;;;;;;;10.38;9.28;;;;;;;14.76;100.00;99013.73;1668538;83;21029;-46
2022/09/27 05:21:02;;;;;;;13.18;8.90;;;;;;;14.78;100.00;99021.56;1669015;83;21139;-39
2022/09/27 05:23:34;;;;;;;17.32;9.65;;;;;;;14.78;100.00;99017.61;1669521;83;20982;-46
2022/09/27 05:26:07;;;;;;;11.03;9.60;;;;;;;14.78;100.00;99010.57;1665672;83;21081;-38
2022/09/27 05:28:34;;;;;;;11.80;9.20;;;;;;;14.78;100.00;99013.20;1627685;85;21833;-38
2022/09/27 05:31:01;;;;;;;10.90;8.98;;;;;;;14.77;100.00;99016.76;1633725;85;21086;-40
2022/09/27 05:33:30;;;;;;;9.05;8.13;;;;;;;14.76;100.00;99012.88;1611226;86;21025;-47
2022/09/27 05:36:06;;;;;;;9.15;8.25;;;;;;;14.75;100.00;99008.06;1654915;83;21101;-47
2022/09/27 05:38:34;;;;;;;10.00;8.10;;;;;;;14.75;100.00;99009.39;1672736;83;20976;-47
2022/09/27 05:43:53;;;;;;;8.80;7.72;;;;;;;14.80;100.00;99004.81;1877659;74;23329;-45
2022/09/27 05:46:20;;;;;;;11.38;7.53;;;;;;;14.76;100.00;99007.15;1837887;75;21093;-39
2022/09/27 05:48:48;;;;;;;10.15;7.22;;;;;;;14.75;100.00;99000.63;1842371;76;21113;-47
2022/09/27 05:51:15;;;;;;;8.35;7.37;;;;;;;14.74;100.00;99001.09;1841834;76;21315;-44
2022/09/27 05:53:42;;;;;;;13.08;8.20;;;;;;;14.71;100.00;98998.56;1832674;76;21508;-46
2022/09/27 05:56:14;;;;;;;9.00;8.08;;;;;;;14.70;100.00;98993.36;1833013;76;20990;-46
2022/09/27 05:58:43;;;;;;;8.53;7.10;;;;;;;14.68;100.00;98994.73;1833298;76;21417;-39
2022/09/27 06:01:14;;;;;;;8.10;7.30;;;;;;;14.68;100.00;98988.16;1836779;76;20998;-46
2022/09/27 06:03:59;;;;;;;12.85;8.20;;;;;;;14.67;100.00;98981.19;1771564;79;21477;-46
2022/09/27 06:06:44;;;;;;;10.80;7.95;;;;;;;14.65;100.00;98980.36;1770683;79;21048;-40
2022/09/27 06:09:18;;;;;;;9.50;8.35;;;;;;;14.63;100.00;98987.01;1734278;80;21516;-46
2022/09/27 06:11:48;;;;;;;11.38;8.05;;;;;;;14.63;100.00;98990.10;1780623;79;21472;-46
2022/09/27 06:14:17;;;;;;;11.63;8.75;;;;;;;14.63;100.00;98989.64;1766345;77;20983;-45
2022/09/27 06:17:01;;;;;;;10.15;9.08;;;;;;;14.64;100.00;98989.18;1768559;79;21025;-46
2022/09/27 06:19:32;;;;;;;13.38;8.55;;;;;;;14.64;100.00;98994.45;1773534;79;21052;-46
2022/09/27 06:21:59;;;;;;;9.33;8.40;;;;;;;14.63;100.00;98990.95;1764523;79;21391;-38
2022/09/27 06:24:28;;;;;;;10.20;9.05;;;;;;;14.64;100.00;99000.56;1792997;77;21433;-38
2022/09/27 06:26:57;;;;;;;8.23;7.47;;;;;;;14.64;100.00;99002.34;1802009;77;20999;-46
2022/09/27 06:29:34;;;;;;;13.08;9.18;;;;;;;14.64;100.00;98986.55;1780174;78;21572;-46
2022/09/27 06:32:02;;;;;;;9.75;8.58;;;;;;;14.65;100.00;98983.00;1784610;78;21599;-39
2022/09/27 06:34:38;;;;;;;9.30;7.97;;;;;;;14.67;100.00;98989.08;1778904;78;21736;-45
2022/09/27 06:37:05;;;;;;;10.38;8.15;;;;;;;14.68;100.00;98988.63;1770417;79;21503;-46
2022/09/27 06:39:33;;;;;;;11.93;9.83;;;;;;;14.70;100.00;98992.05;1768239;79;21016;-40
2022/09/27 06:42:02;;;;;;;10.63;9.43;;;;;;;14.73;100.00;98997.21;1764129;79;21400;-39
2022/09/27 06:44:31;;;;;;;10.35;9.35;;;;;;;14.73;100.00;98994.11;1772664;79;21515;-44
2022/09/27 06:47:18;;;;;;;13.18;10.88;;;;;;;14.75;100.00;99000.17;1783338;78;21559;-40
2022/09/27 06:52:48;;;;;;;14.33;12.10;;;;;;;14.81;100.00;98992.50;1765224;78;28983;-44
2022/09/27 06:55:16;;;;;;;11.30;10.00;;;;;;;14.82;100.00;99000.33;1718809;81;21145;-44
2022/09/27 07:00:28;;;;;;;10.90;9.65;;;;;;;14.88;100.00;99003.20;1736555;80;21115;-45
2022/09/27 07:03:14;;;;;;;12.03;10.82;;;;;;;14.90;100.00;98999.61;1741128;80;20978;-45
2022/09/27 07:05:56;;;;;;;14.40;10.30;;;;;;;14.92;100.00;98987.69;1734386;80;21639;-38
2022/09/27 07:08:27;;;;;;;15.83;11.35;;;;;;;14.94;100.00;98986.30;1731427;81;21035;-39
2022/09/27 07:10:58;;;;;;;11.43;10.18;;;;;;;14.97;100.00;98985.74;1736781;80;21404;-39
2022/09/27 07:13:29;;;;;;;13.40;11.03;;;;;;;15.00;100.00;98975.53;1734938;80;21411;-39
2022/09/27 07:15:55;;;;;;;12.23;10.80;;;;;;;15.04;100.00;98977.14;1736610;80;21056;-41
2022/09/27 07:21:17;;;;;;;14.55;11.30;;;;;;;15.12;100.00;98977.69;1630091;86;21112;-46
2022/09/27 07:23:44;;;;;;;17.70;12.75;;;;;;;15.16;100.00;98973.56;1631262;86;21561;-46
2022/09/27 07:26:13;;;;;;;16.67;13.18;;;;;;;15.20;100.00;98974.31;1669863;84;21032;-46
2022/09/27 07:28:40;;;;;;;14.85;11.65;;;;;;;15.23;100.00;98979.90;1668122;84;21127;-46
2022/09/27 07:31:08;;;;;;;18.12;14.07;;;;;;;15.25;100.00;98979.37;1662010;84;21179;-46
2022/09/27 07:33:35;;;;;;;17.23;14.70;;;;;;;15.26;100.00;98981.11;1663483;84;21090;-39
2022/09/27 07:36:10;;;;;;;16.17;12.88;;;;;;;15.28;100.00;98973.99;1667072;84;21159;-39
2022/09/27 07:38:40;;;;;;;17.20;14.45;;;;;;;15.28;100.00;98964.77;1661557;84;21145;-46
2022/09/27 07:44:49;;;;;;;20.50;13.88;;;;;;;15.29;100.00;98957.26;1668106;84;21032;-44
2022/09/27 07:47:47;;;;;;;20.77;15.53;;;;;;;15.31;100.00;98957.61;1661856;84;21463;-45
2022/09/27 07:50:58;;;;;;;18.80;14.85;;;;;;;15.31;100.00;98958.93;1659483;84;21411;-39
2022/09/27 07:53:45;;;;;;;16.60;13.22;;;;;;;15.31;100.00;98942.27;1639739;86;21085;-39
2022/09/27 07:56:26;;;;;;;23.62;14.78;;;;;;;15.30;100.00;98945.80;1657560;84;21084;-46
2022/09/27 07:58:54;;;;;;;18.27;13.13;;;;;;;15.30;100.00;98942.70;1704166;83;21471;-47
2022/09/27 08:01:22;;;;;;;19.92;13.53;;;;;;;15.32;100.00;98943.52;1702971;82;21097;-38
2022/09/27 08:03:52;;;;;;;15.70;13.25;;;;;;;15.35;100.00;98942.05;1681269;82;21071;-38
2022/09/27 08:06:21;;;;;;;14.43;12.30;;;;;;;15.36;100.00;98937.64;1705390;82;21017;-38
2022/09/27 08:08:48;;;;;;;16.15;12.00;;;;;;;15.39;100.00;98934.43;1701638;83;21065;-43
2022/09/27 08:11:20;;;;;;;14.50;11.93;;;;;;;15.41;100.00;98932.58;1705751;83;21655;-46
2022/09/27 08:13:51;;;;;;;15.15;11.28;;;;;;;15.44;100.00;98922.39;1704684;82;21618;-46
2022/09/27 08:16:20;;;;;;;17.62;11.85;;;;;;;15.48;100.00;98933.21;1701933;82;21096;-39
2022/09/27 08:18:52;;;;;;;12.37;10.32;;;;;;;15.49;100.00;98935.38;1701765;83;20976;-39
2022/09/27 08:21:39;;;;;;;12.88;11.57;;;;;;;15.52;100.00;98941.83;1614038;87;21037;-39
2022/09/27 08:24:23;;;;;;;12.43;11.03;;;;;;;15.53;100.00;98944.85;1629757;86;21009;-48
2022/09/27 08:31:08;;;;;;;14.55;13.00;;;;;;;15.54;100.00;98941.30;1630435;86;21057;-45
2022/09/27 08:34:49;;;;;;;16.73;14.25;;;;;;;15.55;100.00;98930.71;1575822;89;21395;-39
2022/09/27 08:37:41;;;;;;;18.32;13.43;;;;;;;15.58;100.00;98913.89;1604194;87;21628;-46
2022/09/27 08:40:31;;;;;;;14.10;12.47;;;;;;;15.57;100.00;98906.45;1582085;87;21124;-39
2022/09/27 08:43:28;;;;;;;16.05;13.08;;;;;;;15.57;100.00;98905.13;1521007;92;21080;-45
2022/09/27 08:46:43;;;;;;;18.48;15.55;;;;;;;15.57;100.00;98901.64;1527913;92;21646;-39
2022/09/27 08:49:17;;;;;;;16.42;13.90;;;;;;;15.59;100.00;98904.59;1520987;92;21085;-45
2022/09/27 08:51:47;;;;;;;16.87;15.05;;;;;;;15.61;100.00;98894.01;1532755;88;21103;-46
2022/09/27 08:54:22;;;;;;;18.80;14.45;;;;;;;15.61;100.00;98888.27;1624224;87;21835;-46
2022/09/27 08:56:50;;;;;;;15.65;14.03;;;;;;;15.62;100.00;98884.74;1624797;87;21145;-40
2022/09/27 08:59:21;;;;;;;18.82;15.65;;;;;;;15.62;100.00;98879.90;1624288;87;21032;-39
2022/09/27 09:01:49;;;;;;;18.82;16.35;;;;;;;15.63;100.00;98874.59;1604816;87;21533;-39
2022/09/27 09:04:37;;;;;;;20.10;15.60;;;;;;;15.63;100.00;98868.00;1623948;87;21579;-46
2022/09/27 09:07:19;;;;;;;19.92;15.00;;;;;;;15.63;100.00;98868.45;1627043;87;21008;-39
2022/09/27 09:13:20;;;;;;;14.87;13.38;;;;;;;15.61;100.00;98860.59;1628591;86;20116;-46
2022/09/27 09:16:19;;;;;;;15.38;13.83;;;;;;;15.59;100.00;98868.16;1599000;87;21048;-46
2022/09/27 09:19:46;;;;;;;14.13;12.63;;;;;;;15.56;100.00;98866.52;1623061;87;21545;-46
2022/09/27 09:22:37;;;;;;;12.88;11.65;;;;;;;15.54;100.00;98864.86;1712800;81;21618;-40
2022/09/27 09:25:30;;;;;;;13.22;11.83;;;;;;;15.49;100.00;98852.36;1713558;81;21921;-45
2022/09/27 09:28:27;;;;;;;16.65;12.45;;;;;;;15.43;100.00;98851.70;1711391;83;21087;-45
2022/09/27 09:31:21;;;;;;;12.35;11.15;;;;;;;15.38;100.00;98854.98;1664959;84;21127;-45
2022/09/27 09:34:00;;;;;;;12.30;11.08;;;;;;;15.34;100.00;98858.66;1670723;85;21403;-46
2022/09/27 09:36:49;;;;;;;12.37;11.10;;;;;;;15.30;100.00;98848.31;1657353;86;21078;-40
2022/09/27 09:39:27;;;;;;;12.07;10.65;;;;;;;15.27;100.00;98852.41;1613734;87;21024;-39
2022/09/27 09:42:14;;;;;;;12.00;10.70;;;;;;;15.26;100.00;98852.02;1570271;90;21383;-39
2022/09/27 09:45:04;;;;;;;14.28;10.90;;;;;;;15.27;100.00;98853.72;1586909;89;21328;-39
2022/09/27 09:47:40;;;;;;;12.85;10.82;;;;;;;15.26;100.00;98844.96;1600780;88;21045;-45
2022/09/27 09:50:28;;;;;;;12.00;10.82;;;;;;;15.27;100.00;98832.19;1588526;89;21180;-39
2022/09/27 09:53:04;;;;;;;11.50;10.40;;;;;;;15.25;100.00;98834.03;1553218;90;21103;-40
2022/09/27 09:55:34;;;;;;;11.50;10.30;;;;;;;15.23;100.00;98830.59;1596275;89;21070;-39
2022/09/27 09:58:16;;;;;;;13.00;11.53;;;;;;;15.22;100.00;98836.78;1596732;89;21062;-38
2022/09/27 10:00:45;;;;;;;15.68;13.13;;;;;;;15.21;100.00;98842.13;1597656;89;21050;-37
2022/09/27 10:03:12;;;;;;;15.45;13.40;;;;;;;15.20;100.00;98836.47;1596488;89;21078;-38
2022/09/27 10:05:42;;;;;;;15.23;13.55;;;;;;;15.17;100.00;98832.16;1601082;89;21133;-45
2022/09/27 10:08:14;;;;;;;12.18;10.90;;;;;;;15.15;100.00;98836.19;1581761;89;21067;-45
2022/09/27 10:10:42;;;;;;;13.10;11.63;;;;;;;15.17;100.00;98836.11;1601730;87;21982;-45
2022/09/27 10:13:29;;;;;;;15.18;13.00;;;;;;;15.16;100.00;98830.45;1596957;89;21060;-45
2022/09/27 10:16:11;;;;;;;15.95;12.47;;;;;;;15.17;100.00;98834.80;1642080;81;22106;-41
2022/09/27 10:18:40;;;;;;;14.90;12.40;;;;;;;15.16;100.00;98831.31;1696365;81;21081;-39
2022/09/27 10:21:27;;;;;;;13.75;12.25;;;;;;;15.18;100.00;98827.28;1713120;81;21049;-40
2022/09/27 10:24:11;;;;;;;16.42;13.00;;;;;;;15.20;100.00;98824.61;1723135;81;21076;-39
2022/09/27 10:27:17;;;;;;;17.87;14.55;;;;;;;15.20;100.00;98818.88;1722333;81;20962;-39
2022/09/27 10:29:45;;;;;;;15.20;13.60;;;;;;;15.21;100.00;98820.59;1724080;81;21053;-38
2022/09/27 10:32:35;;;;;;;17.10;15.00;;;;;;;15.24;100.00;98821.76;1720834;81;20998;-38
2022/09/27 10:35:44;;;;;;;16.40;14.58;;;;;;;15.27;100.00;98817.69;1719552;81;21419;-39
2022/09/27 10:38:24;;;;;;;16.55;14.80;;;;;;;15.30;100.00;98815.38;1695751;81;21836;-46
2022/09/27 10:40:54;;;;;;;17.23;15.45;;;;;;;15.34;100.00;98808.59;1721754;81;21033;-41
2022/09/27 10:43:33;;;;;;;15.63;13.98;;;;;;;15.38;100.00;98800.11;1697165;81;21037;-38
2022/09/27 10:46:27;;;;;;;16.67;15.00;;;;;;;15.45;100.00;98792.33;1699668;82;21551;-39
2022/09/27 10:49:21;;;;;;;20.05;14.85;;;;;;;15.53;100.00;98788.88;1694627;82;21033;-39
2022/09/27 10:51:52;;;;;;;20.80;16.10;;;;;;;15.59;100.00;98782.02;1695273;82;21013;-47
2022/09/27 10:54:26;;;;;;;19.00;16.57;;;;;;;15.65;100.00;98780.92;1684578;83;21539;-46
2022/09/27 10:56:59;;;;;;;16.97;15.15;;;;;;;15.70;100.00;98781.58;1708407;81;21251;-39
2022/09/27 10:59:29;;;;;;;17.32;15.60;;;;;;;15.77;100.00;98765.91;1704901;83;21663;-46
2022/09/27 11:01:57;;;;;;;17.12;15.43;;;;;;;15.84;100.00;98773.07;1707785;81;20999;-47
2022/09/27 11:04:32;;;;;;;18.40;16.10;;;;;;;15.89;100.00;98761.86;1710197;81;21009;-47
2022/09/27 11:07:17;;;;;;;21.65;17.42;;;;;;;15.95;100.00;98761.11;1707681;81;21023;-39
2022/09/27 11:10:01;;;;;;;20.90;18.02;;;;;;;16.01;100.00;98756.01;1636858;86;21062;-46
2022/09/27 11:12:26;;;;;;;22.45;18.73;;;;;;;16.05;100.00;98758.02;1634879;86;21999;-39
2022/09/27 11:15:04;;;;;;;22.00;19.37;;;;;;;16.08;100.00;98764.49;1633589;86;21695;-47
2022/09/27 11:17:53;;;;;;;20.27;18.15;;;;;;;16.11;100.00;98762.55;1637120;86;21511;-46
2022/09/27 11:20:34;;;;;;;25.27;19.05;;;;;;;16.14;100.00;98753.66;1637004;86;21619;-47
2022/09/27 11:23:39;;;;;;;22.02;18.15;;;;;;;16.17;100.00;98745.11;1611065;87;21146;-46
2022/09/27 11:26:25;;;;;;;20.00;18.00;;;;;;;16.21;100.00;98748.00;1585417;89;21177;-47
2022/09/27 11:29:26;;;;;;;22.15;19.42;;;;;;;16.26;100.00;98748.26;1555629;90;21052;-46
2022/09/27 11:32:48;;;;;;;23.20;20.55;;;;;;;16.30;100.00;98748.05;1580675;89;21022;-47
2022/09/27 11:36:20;;;;;;;27.85;20.97;;;;;;;16.31;100.00;98745.80;1579505;89;21580;-46
2022/09/27 11:39:05;;;;;;;24.45;21.82;;;;;;;16.35;100.00;98742.09;1557692;90;21674;-47
2022/09/27 11:42:04;;;;;;;23.27;20.77;;;;;;;16.39;100.00;98746.73;1569137;90;21079;-48
2022/09/27 11:44:48;;;;;;;26.35;22.13;;;;;;;16.41;100.00;98745.75;1585395;89;21590;-47
2022/09/27 11:47:41;;;;;;;25.37;21.93;;;;;;;16.46;100.00;98742.86;1639245;86;21615;-47
2022/09/27 11:50:39;;;;;;;31.62;23.80;;;;;;;16.49;100.00;98740.09;1622475;86;21192;-48
2022/09/27 11:53:30;;;;;;;22.93;19.82;;;;;;;16.52;100.00;98741.70;1655408;86;21525;-41
2022/09/27 11:56:14;;;;;;;23.67;21.27;;;;;;;16.55;100.00;98730.55;1632665;86;21079;-40
2022/09/27 11:59:30;;;;;;;29.20;24.27;;;;;;;16.58;100.00;98734.34;1683351;83;21491;-40
2022/09/27 12:02:24;;;;;;;27.27;24.37;;;;;;;16.63;100.00;98734.13;1701599;82;20974;-42
2022/09/27 12:05:31;;;;;;;35.52;22.93;;;;;;;16.66;100.00;98730.02;1698113;82;21700;-47
2022/09/27 12:08:14;;;;;;;27.98;24.20;;;;;;;16.69;100.00;98725.43;1625354;86;21025;-40
2022/09/27 12:10:48;;;;;;;27.42;22.05;;;;;;;16.71;100.00;98720.13;1623180;85;21643;-39
2022/09/27 12:13:19;;;;;;;27.32;23.80;;;;;;;16.72;100.00;98717.41;1593993;89;21154;-39
2022/09/27 12:15:46;;;;;;;27.50;23.80;;;;;;;16.73;100.00;98709.86;1615742;88;21108;-39
2022/09/27 12:18:28;;;;;;;28.17;23.10;;;;;;;16.75;100.00;98718.55;1615036;86;21065;-40
2022/09/27 12:20:55;;;;;;;31.30;24.77;;;;;;;16.77;100.00;98722.46;1616816;86;21662;-46
2022/09/27 12:23:28;;;;;;;31.35;25.20;;;;;;;16.78;100.00;98715.39;1601215;88;21478;-46
2022/09/27 12:26:19;;;;;;;36.50;27.27;;;;;;;16.80;100.00;98713.52;1618354;86;21073;-39
2022/09/27 12:28:56;;;;;;;27.27;24.30;;;;;;;16.82;100.00;98704.60;1617469;88;21037;-41
2022/09/27 12:31:34;;;;;;;27.13;22.98;;;;;;;16.85;100.00;98715.00;1628838;86;22084;-40
2022/09/27 12:34:26;;;;;;;28.92;23.80;;;;;;;16.87;100.00;98707.87;1628543;86;21060;-39
2022/09/27 12:37:17;;;;;;;28.55;25.20;;;;;;;16.88;100.00;98696.37;1620511;86;21049;-40
2022/09/27 12:39:56;;;;;;;28.07;23.87;;;;;;;16.87;100.00;98694.66;1625199;86;21150;-46
2022/09/27 12:42:54;;;;;;;28.02;24.23;;;;;;;16.87;100.00;98691.14;1683631;83;21030;-47
2022/09/27 12:46:01;;;;;;;28.55;25.40;;;;;;;16.87;100.00;98696.42;1705925;83;20986;-47
2022/09/27 12:49:04;;;;;;;30.70;23.40;;;;;;;16.85;100.00;98702.26;1705375;83;21017;-40
2022/09/27 12:51:34;;;;;;;;;;;;;;;16.85;100.00;98707.55;1651918;86;21101;-47
2022/09/27 12:54:36;;;;;;;33.42;27.42;;;;;;;16.84;100.00;98708.48;1641659;85;20715;-47
2022/09/27 12:57:17;;;;;;;32.80;25.55;;;;;;;16.82;100.00;98696.68;1620593;87;21021;-47
2022/09/27 13:00:24;;;;;;;29.85;25.65;;;;;;;16.82;100.00;98706.39;1619662;87;21571;-40
2022/09/27 13:03:23;;;;;;;40.40;25.77;;;;;;;16.79;100.00;98700.78;1625590;87;21483;-40
2022/09/27 13:06:37;;;;;;;31.42;21.42;;;;;;;16.77;100.00;98701.34;1621216;87;21055;-47
2022/09/27 13:09:33;;;;;;;23.83;20.73;;;;;;;16.73;100.00;98705.05;1548199;91;21425;-48
2022/09/27 13:12:12;;;;;;;27.10;20.25;;;;;;;16.69;100.00;98695.53;1571860;91;21117;-48
2022/09/27 13:14:45;;;;;;;21.85;19.40;;;;;;;16.66;100.00;98687.31;1563796;90;21082;-40
2022/09/27 13:17:33;;;;;;;22.25;19.60;;;;;;;16.63;100.00;98693.20;1592301;90;21157;-47
2022/09/27 13:20:28;;;;;;;20.15;18.00;;;;;;;16.61;100.00;98678.77;1560111;90;21109;-41
2022/09/27 13:22:56;;;;;;;18.92;17.02;;;;;;;16.58;100.00;98684.65;1560272;90;21804;-47
2022/09/27 13:25:59;;;;;;;17.52;15.83;;;;;;;16.56;100.00;98690.48;1539354;91;21129;-46
2022/09/27 13:28:50;;;;;;;16.57;14.78;;;;;;;16.53;100.00;98676.98;1603204;89;21073;-39
